• Join FlightAware (Why Join?)
  • Login
  • US Flag 
10:27AM EST


 

Airport Tracker/Info


-or-


 

Live Flight TrackerFlight Track Log ✈ N946CE ✈ 30-Jun-2013 ✈ KTYS - KPTK

Flight Track Log - Related Links

Times and Time Zones

All times are in EDT time to prevent confusion due to time zone crossing. See the N946CE flight status page for this flight to view local times or setup timezone preferences in your user account.

Time Position Orientation Groundspeed Altitude Reporting Facility
EDT Latitude Longitude Course Direction KTS MPH feet Rate Location/Type
03:00PM 35.7831 -84.0414 355° North 153 176 2,700  Level Atlanta Center
03:01PM 35.7933 -84.0847 286° West 133 153 4,400 1,548 Climbing Atlanta Center
03:03PM 35.8984 -84.0755 North  Level Estimated
03:03PM 35.8844 -84.0594 North 169 194 7,500  Level Indianapolis Center
03:04PM 35.9342 -84.0367 20° North 184 212 9,100 1,622 Climbing Indianapolis Center
03:06PM 36.2092 -84.0359 355° North  Level FlightAware Approximate
03:06PM 36.0385 -84.0144 351° North  Level FlightAware Approximate
03:06PM 36.0450 -83.9919 351° North 192 221 12,500  Level Indianapolis Center
03:07PM 36.0875 -83.9719 21° North 193 222 13,400 1,321 Climbing Atlanta Center
03:08PM 36.1439 -83.9461 20° North 198 228 14,900 1,450 Climbing Atlanta Center
03:09PM 36.2000 -83.9203 20° North 203 234 16,300 1,348 Climbing Atlanta Center
03:10PM 36.2731 -83.9036 10° North 225 259 18,000 1,243 Climbing Indianapolis Center
03:11PM 36.3342 -83.9017 North 222 255 19,200 1,258 Climbing Indianapolis Center
03:12PM 36.4108 -83.8994 North 227 261 20,600 1,210 Climbing Indianapolis Center
03:13PM 36.4739 -83.8983 North 227 261 21,700 1,016 Climbing Indianapolis Center
03:14PM 36.5400 -83.9044 356° North 229 264 22,700 634 Climbing Indianapolis Center
03:15PM 36.6078 -83.9033 North 239 275 23,000 146 Climbing Indianapolis Center
03:16PM 36.6864 -83.9114 355° North 273 314 23,000  Level Indianapolis Center
03:17PM 36.7689 -83.9306 349° North 293 337 23,000  Level Indianapolis Center
03:19PM 36.8517 -83.9289 North 301 346 23,000  Level Indianapolis Center
03:20PM 36.9369 -83.9103 10° North 308 354 23,000  Level Indianapolis Center
03:21PM 37.0378 -83.8908 North 311 358 23,000  Level Indianapolis Center
03:22PM 37.1253 -83.8706 10° North 314 361 23,000  Level Indianapolis Center
03:23PM 37.2094 -83.8539 North 307 353 23,000  Level Indianapolis Center
03:24PM 37.2958 -83.8361 North 312 359 23,000  Level Indianapolis Center
03:25PM 37.3822 -83.8211 North 311 358 23,000  Level Indianapolis Center
03:26PM 37.4667 -83.8297 355° North 304 350 23,000  Level Indianapolis Center
03:27PM 37.5508 -83.8411 354° North 303 349 23,000  Level Indianapolis Center
03:28PM 37.6494 -83.8450 358° North 303 349 23,000  Level Indianapolis Center
03:29PM 37.7358 -83.8414 North 307 353 23,000  Level Indianapolis Center
03:30PM 37.8222 -83.8336 North 309 356 23,000  Level Indianapolis Center
03:31PM 37.9072 -83.8278 North 306 352 23,000  Level Indianapolis Center
03:32PM 37.9911 -83.8208 North 302 348 23,000  Level Indianapolis Center
03:33PM 38.0769 -83.8178 North 305 351 23,000  Level Indianapolis Center
03:34PM 38.1592 -83.8272 355° North 299 344 23,000  Level Indianapolis Center
03:35PM 38.2564 -83.8328 357° North 300 345 23,000  Level Indianapolis Center
03:36PM 38.3383 -83.8400 356° North 296 341 23,000  Level Indianapolis Center
03:37PM 38.4208 -83.8483 355° North 296 341 23,000  Level Indianapolis Center
03:38PM 38.5044 -83.8528 358° North 299 344 23,000  Level Indianapolis Center
03:39PM 38.5856 -83.8642 354° North 295 339 23,000  Level Indianapolis Center
03:40PM 38.6706 -83.8675 358° North 298 343 23,000  Level Indianapolis Center
03:41PM 38.7522 -83.8764 355° North 293 337 23,000  Level Indianapolis Center
03:42PM 38.8339 -83.8914 352° North 292 336 23,000  Level Indianapolis Center
03:43PM 38.9100 -83.9264 340° North 286 329 23,000  Level Indianapolis Center
03:44PM 38.9878 -83.9567 343° North 288 331 23,000  Level Indianapolis Center
03:45PM 39.0781 -83.9900 344° North 286 329 23,000  Level Indianapolis Center
03:46PM 39.1561 -84.0197 344° North 288 331 23,000  Level Indianapolis Center
03:47PM 39.2317 -84.0547 340° North 286 329 23,000  Level Indianapolis Center
03:48PM 39.3086 -84.0858 343° North 288 331 23,000  Level Indianapolis Center
03:49PM 39.3847 -84.1194 341° North 287 330 23,000  Level Indianapolis Center
03:50PM 39.4608 -84.1517 342° North 286 329 23,000  Level Indianapolis Center
03:51PM 39.5389 -84.1814 344° North 289 333 23,000  Level Indianapolis Center
03:52PM 39.6136 -84.2153 341° North 282 325 23,000  Level Indianapolis Center
03:53PM 39.6900 -84.2433 344° North 282 325 23,000  Level Indianapolis Center
03:55PM 39.7656 -84.2811 339° North 286 329 23,000  Level Indianapolis Center
03:56PM 39.8408 -84.3164 340° North 285 328 23,000  Level Indianapolis Center
03:57PM 39.9264 -84.3556 341° North 277 319 23,000  Level Indianapolis Center
03:58PM 39.9978 -84.3875 341° North 270 311 23,000  Level Indianapolis Center
03:59PM 40.0708 -84.4053 349° North 269 310 23,000  Level Indianapolis Center
04:00PM 40.1478 -84.4033 North 272 313 23,000  Level Indianapolis Center
04:01PM 40.2231 -84.4017 North 269 310 23,000 -195 Level Indianapolis Center
04:02PM 40.3033 -84.4033 359° North 280 322 22,600 -484 Descending Indianapolis Center
04:03PM 40.3844 -84.4058 359° North 287 330 22,000 -581 Descending Indianapolis Center
04:04PM 40.4625 -84.4025 North 277 319 21,400 -484 Descending Indianapolis Center
04:05PM 40.5344 -84.4014 North 260 299 21,000 -134 Descending Indianapolis Center
04:07PM 40.6806 -84.4056 359° North 255 293 21,000  Level Cleveland Center
04:08PM 40.7642 -84.4086 358° North 258 297 21,000  Level Indianapolis Center
04:09PM 40.8372 -84.4092 360° North 258 297 21,000  Level Indianapolis Center
04:10PM 40.9106 -84.4100 360° North 262 302 21,000 -194 Level Indianapolis Center
04:11PM 40.9861 -84.4092 360° North 268 308 20,600 -683 Descending Indianapolis Center
04:12PM 41.0656 -84.4064 North 279 321 19,600 -976 Descending Indianapolis Center
04:13PM 41.1442 -84.4019 North 280 322 18,600 -1,019 Descending Indianapolis Center
04:14PM 41.2039 -84.4058 357° North 271 312 17,800 -1,038 Descending Cleveland Center
04:15PM 41.2811 -84.4047 North 271 312 16,800 -1,000 Descending Cleveland Center
04:16PM 41.3581 -84.4067 359° North 271 312 15,800 -1,050 Descending Cleveland Center
04:17PM 41.4353 -84.4083 359° North 271 312 14,700 -1,450 Descending Cleveland Center
04:18PM 41.5139 -84.4269 350° North 276 318 12,900 -1,950 Descending Cleveland Center
04:19PM 41.5947 -84.4428 352° North 281 323 10,800 -2,150 Descending Cleveland Center
04:20PM 41.6656 -84.4444 359° North 276 318 8,600 -1,300 Descending Cleveland Center
04:22PM 41.7806 -84.3761 24° Northeast 223 257 6,900 -636 Descending Cleveland Center
04:22PM 41.8106 -84.3500 33° Northeast 204 235 7,000 97 Climbing Cleveland Center
04:23PM 41.8342 -84.3289 34° Northeast 202 232 7,000 -67 Level Cleveland Center
04:24PM 41.8731 -84.2894 37° Northeast 201 231 6,900  Descending Cleveland Center
04:25PM 41.9161 -84.2444 38° Northeast 192 221 7,000 50 Climbing Cleveland Center
04:26PM 41.9572 -84.1994 39° Northeast 184 212 7,000  Level Cleveland Center
04:27PM 41.9939 -84.1594 39° Northeast 184 212 7,000  Level Cleveland Center
04:28PM 42.0467 -84.1400 15° North 195 224 7,000  Level Cleveland Center
04:29PM 42.0894 -84.1006 34° Northeast 190 219 7,000 -198 Level Cleveland Center
04:30PM 42.1283 -84.0578 39° Northeast 187 215 6,600 -732 Descending Cleveland Center
04:31PM 42.1711 -84.0181 35° Northeast 181 208 5,500 -1,073 Descending Cleveland Center
04:32PM 42.2100 -83.9783 37° Northeast 167 192 4,400 -738 Descending Cleveland Center
04:33PM 42.2489 -83.9297 43° Northeast 180 207 4,000 -197 Descending Cleveland Center
04:34PM 42.2897 -83.8897 36° Northeast 176 203 4,000  Level Cleveland Center
04:35PM 42.3325 -83.8472 36° Northeast 170 196 4,000  Level Cleveland Center
04:36PM 42.3669 -83.8094 39° Northeast 182 209 4,000  Level Cleveland Center
04:37PM 42.4056 -83.7694 37° Northeast 167 192 4,000  Level Cleveland Center
04:38PM 42.4422 -83.7317 37° Northeast 160 184 4,000  Level Cleveland Center
04:39PM 42.4786 -83.6914 39° Northeast 166 191 4,000  Level Cleveland Center
04:40PM 42.5169 -83.6594 32° Northeast 162 186 4,000  Level Cleveland Center
04:41PM 42.5617 -83.6278 28° Northeast 162 186 4,000 -393 Level Cleveland Center
04:42PM 42.6003 -83.5903 36° Northeast 184 212 3,200 -738 Descending Cleveland Center
04:43PM 42.6308 -83.5353 53° Northeast 171 197 2,500 -516 Descending Cleveland Center
04:44PM 42.6506 -83.4967 55° Northeast 116 133 2,100 -517 Descending Cleveland Center
04:45PM 42.6619 -83.4603 67° East 95 109 1,500 -655 Descending Cleveland Center